Latest Weather Observations for Cunderdin Airport

IDW60801

Issued at 5:02 am WST Tuesday 23 December 2014 (issued every 30 minutes, with the page automatically refreshed every 10 minutes)

About weather observations | Map of weather stations | Latest weather observations for WA | Other Formats
Station Details ID: 010286 Name: CUNDERDIN AIRFIELD Lat: -31.62 Lon: 117.22 Height: 216.7 m
Data from the previous 72 hours. | See also: Recent months at Cunderdin Airport
Date/Time
WST
Temp
°C
App
Temp
°C
Dew
Point
Rel
Hum
%
Delta-T
°C
Wind Press
QNH
hPa
Press
MSL
hPa
Rain
since 9 am
mm
Dir
 
Spd
km/h
Gust
km/h
Spd
kts
Gust
kts
23/05:00am 14.4 10.5 9.4 72 2.6 ESE 20 33 11 18 1018.7 1017.7 0.0
23/04:30am 14.6 10.3 9.4 71 2.7 ESE 22 33 12 18 1018.4 1017.4 0.0
23/04:00am 14.8 10.5 9.4 70 2.8 ESE 22 39 12 21 1018.3 1017.3 0.0
23/03:30am 15.0 10.7 9.4 69 2.9 ESE 22 33 12 18 1018.1 1017.1 0.0
23/03:00am 15.2 11.0 9.6 69 2.9 ESE 22 35 12 19 1017.8 1016.8 0.0
23/02:30am 15.6 11.1 9.9 69 3.0 ESE 24 35 13 19 1017.8 1016.8 0.0
23/02:00am 15.8 11.4 10.3 70 2.9 SE 24 35 13 19 1017.6 1016.6 0.0
23/01:30am 16.1 11.7 10.4 69 3.0 ESE 24 35 13 19 1017.5 1016.5 0.0
23/01:00am 16.6 12.3 10.7 68 3.2 ESE 24 35 13 19 1017.6 1016.6 0.0
23/12:30am 17.1 12.0 10.7 66 3.5 SE 28 43 15 23 1017.3 1016.3 0.0
23/12:00am 18.2 12.3 11.0 63 3.9 SE 33 52 18 28 1017.2 1016.2 0.0
 
Date/Time
WST
Temp
°C
App
Temp
°C
Dew
Point
Rel
Hum
%
Delta-T
°C
Wind Press
QNH
hPa
Press
MSL
hPa
Rain
since 9 am
mm
Dir
 
Spd
km/h
Gust
km/h
Spd
kts
Gust
kts
22/11:55pm 18.3 12.4 11.1 63 3.9 SE 33 52 18 28 1017.1 1016.1 0.0
22/11:30pm 19.3 13.1 11.3 60 4.4 SE 35 52 19 28 1016.6 1015.6 0.0
22/11:11pm 20.4 14.5 11.3 56 5.1 SE 33 54 18 29 1016.4 1015.4 0.0
22/11:00pm 21.3 16.2 10.5 50 5.9 SE 28 41 15 22 1016.2 1015.2 0.0
22/10:58pm 21.4 16.0 9.6 47 6.4 SE 28 41 15 22 1016.1 1015.1 0.0
22/10:30pm 22.3 19.3 7.7 39 7.7 SSE 13 19 7 10 1015.7 1014.7 0.0
22/10:00pm 22.0 19.8 7.8 40 7.5 SE 9 11 5 6 1015.5 1014.5 0.0
22/09:30pm 22.7 19.6 7.3 37 8.1 SE 13 17 7 9 1015.6 1014.6 0.0
22/09:00pm 23.6 21.0 7.7 36 8.4 SE 11 13 6 7 1015.4 1014.4 0.0
22/08:30pm 24.1 21.4 7.3 34 8.9 SE 11 13 6 7 1015.3 1014.3 0.0
22/08:00pm 25.3 22.6 7.4 32 9.5 SE 11 17 6 9 1015.1 1014.1 0.0
22/07:30pm 26.1 22.3 7.7 31 9.9 SSE 17 20 9 11 1014.9 1013.8 0.0
22/07:00pm 27.4 23.1 7.8 29 10.6 SSE 20 26 11 14 1014.6 1013.5 0.0
22/06:30pm 28.4 24.3 8.7 29 10.9 SSE 20 30 11 16 1014.2 1013.2 0.0
22/06:00pm 29.1 25.2 8.7 28 11.3 SSE 19 26 10 14 1013.9 1012.9 0.0
22/05:30pm 29.7 25.8 9.3 28 11.5 SSE 20 30 11 16 1013.7 1012.7 0.0
22/05:00pm 28.9 25.5 9.1 29 11.1 S 17 26 9 14 1013.6 1012.6 0.0
22/04:30pm 30.2 27.2 9.1 27 11.9 S 15 22 8 12 1013.5 1012.5 0.0
22/04:00pm 31.3 28.1 10.1 27 12.2 SSW 17 22 9 12 1013.6 1012.6 0.0
22/03:30pm 30.8 26.9 9.6 27 12.1 S 20 28 11 15 1013.9 1012.9 0.0
22/03:00pm 29.7 27.0 10.3 30 11.1 SSE 15 24 8 13 1014.1 1013.1 0.0
22/02:30pm 29.8 27.7 9.9 29 11.3 S 11 22 6 12 1014.3 1013.3 0.0
22/02:00pm 29.9 28.0 10.5 30 11.1 SSE 11 19 6 10 1014.8 1013.7 0.0
22/01:30pm 29.2 27.2 10.3 31 10.8 NE 11 20 6 11 1015.1 1014.1 0.0
22/01:00pm 28.9 26.8 11.0 33 10.3 W 13 17 7 9 1015.5 1014.5 0.0
22/12:30pm 27.8 26.5 11.4 36 9.5 SSW 9 17 5 9 1015.9 1014.9 0.0
22/12:00pm 28.3 26.8 11.8 36 9.6 ESE 11 19 6 10 1016.3 1015.3 0.0
22/11:30am 27.5 26.1 12.3 39 8.9 SE 11 17 6 9 1016.7 1015.7 0.0
22/11:00am 26.8 25.6 12.8 42 8.2 E 11 19 6 10 1016.9 1015.9 0.0
22/10:30am 26.0 25.3 13.2 45 7.6 ENE 9 19 5 10 1017.2 1016.2 0.0
22/10:00am 25.1 23.7 13.3 48 6.9 ENE 13 20 7 11 1017.6 1016.6 0.0
22/09:30am 24.0 22.2 13.2 50 6.3 ESE 15 24 8 13 1018.0 1017.0 0.0
22/09:00am 23.3 21.6 13.5 54 5.7 E 15 26 8 14 1018.0 1017.0 0.0
22/08:30am 22.8 20.7 13.6 56 5.4 E 17 28 9 15 1018.2 1017.2 0.0
22/08:00am 22.6 20.7 14.2 59 5.0 E 17 26 9 14 1018.1 1017.1 0.0
22/07:30am 21.0 18.9 13.7 63 4.2 ESE 17 28 9 15 1018.1 1017.1 0.0
22/07:00am 20.0 17.6 13.7 67 3.6 ESE 19 28 10 15 1018.0 1017.0 0.0
22/06:30am 18.8 16.3 13.4 71 3.1 ESE 19 26 10 14 1017.7 1016.7 0.0
22/06:00am 17.5 16.0 13.2 76 2.4 ESE 13 20 7 11 1017.4 1016.4 0.0
22/05:30am 16.4 15.3 13.1 81 1.9 ESE 11 15 6 8 1017.3 1016.3 0.0
22/05:00am 16.0 14.8 12.9 82 1.7 ESE 11 13 6 7 1017.1 1016.1 0.0
22/04:30am 16.5 15.4 13.0 80 2.0 ESE 11 17 6 9 1016.8 1015.8 0.0
22/04:00am 16.8 15.0 13.3 80 2.0 E 15 22 8 12 1016.6 1015.6 0.0
22/03:30am 17.2 14.5 13.5 79 2.1 E 20 28 11 15 1016.5 1015.5 0.0
22/03:00am 16.5 14.4 13.6 83 1.6 ESE 17 24 9 13 1016.6 1015.6 0.0
22/02:30am 16.2 14.8 13.3 83 1.6 ESE 13 17 7 9 1016.7 1015.7 0.0
22/02:00am 16.4 14.2 13.3 82 1.8 ESE 17 24 9 13 1016.9 1015.9 0.0
22/01:30am 16.5 14.7 13.2 81 1.9 ESE 15 19 8 10 1016.8 1015.8 0.0
22/01:00am 16.7 14.5 13.2 80 2.0 ESE 17 22 9 12 1017.0 1016.0 0.0
22/12:30am 17.0 14.4 13.3 79 2.1 ESE 19 30 10 16 1017.3 1016.3 0.0
22/12:00am 17.3 15.1 13.2 77 2.3 ESE 17 24 9 13 1017.4 1016.4 0.0
 
Date/Time
WST
Temp
°C
App
Temp
°C
Dew
Point
Rel
Hum
%
Delta-T
°C
Wind Press
QNH
hPa
Press
MSL
hPa
Rain
since 9 am
mm
Dir
 
Spd
km/h
Gust
km/h
Spd
kts
Gust
kts
21/11:30pm 17.8 15.2 13.3 75 2.6 SE 19 26 10 14 1017.7 1016.7 0.0
21/11:00pm 18.4 15.6 13.3 72 2.9 SE 20 32 11 17 1017.9 1016.9 0.0
21/10:30pm 19.0 15.9 13.4 70 3.2 SE 22 35 12 19 1017.8 1016.8 0.0
21/10:00pm 19.5 16.9 13.2 67 3.6 SE 19 26 10 14 1017.8 1016.8 0.0
21/09:30pm 20.0 17.4 13.2 65 3.9 SE 19 26 10 14 1017.5 1016.5 0.0
21/09:00pm 20.7 18.0 13.4 63 4.2 SE 20 30 11 16 1017.2 1016.2 0.0
21/08:30pm 21.4 17.5 13.3 60 4.7 SE 26 37 14 20 1016.8 1015.8 0.0
21/08:00pm 22.3 18.7 13.1 56 5.3 SE 24 33 13 18 1016.4 1015.4 0.0
21/07:30pm 23.4 19.3 12.7 51 6.2 SE 26 37 14 20 1015.7 1014.7 0.0
21/07:00pm 24.6 20.6 11.9 45 7.3 SE 24 33 13 18 1015.3 1014.3 0.0
21/06:30pm 25.4 21.0 11.6 42 7.9 SSE 26 35 14 19 1015.2 1014.2 0.0
21/06:00pm 25.9 21.1 11.6 40 8.2 SSE 28 39 15 21 1014.8 1013.7 0.0
21/05:30pm 26.4 21.7 10.5 37 9.0 SSE 26 39 14 21 1014.6 1013.5 0.0
21/05:00pm 27.1 22.0 10.7 35 9.3 SE 28 39 15 21 1014.5 1013.4 0.0
21/04:30pm 27.3 22.3 10.9 36 9.4 SE 28 41 15 22 1014.6 1013.5 0.0
21/04:00pm 27.7 23.2 11.3 36 9.5 SE 26 35 14 19 1014.6 1013.5 0.0
21/03:30pm 29.5 25.3 11.1 32 10.7 SSE 24 41 13 22 1014.8 1013.7 0.0
21/03:00pm 28.0 24.1 10.7 34 9.9 SE 22 35 12 19 1015.2 1014.2 0.0
21/02:30pm 28.2 24.9 10.9 34 9.9 SSE 19 33 10 18 1015.4 1014.4 0.0
21/02:00pm 28.6 24.0 11.2 34 10.0 SSE 26 41 14 22 1015.7 1014.7 0.0
21/01:30pm 27.9 23.8 11.5 36 9.5 SSE 24 37 13 20 1015.7 1014.7 0.0
21/01:00pm 27.0 22.8 11.1 37 9.1 SE 24 39 13 21 1016.1 1015.1 0.0
21/12:30pm 26.4 21.5 11.3 39 8.7 SE 28 43 15 23 1016.3 1015.3 0.0
21/12:06pm 26.5 21.9 12.2 41 8.3 SSE 28 46 15 25 1016.4 1015.4 0.0
21/12:00pm 25.2 20.0 11.7 43 7.7 SSE 30 46 16 25 1016.5 1015.5 0.0
21/11:45am 25.5 20.8 12.0 43 7.8 SE 28 46 15 25 1016.5 1015.5 0.0
21/11:30am 24.8 19.2 11.4 43 7.6 SE 32 43 17 23 1016.8 1015.8 0.0
21/11:00am 24.7 19.1 11.6 44 7.5 SE 32 48 17 26 1017.1 1016.1 0.0
21/10:31am 24.9 19.9 12.2 45 7.3 SE 30 48 16 26 1017.2 1016.2 0.0
21/10:30am 24.8 20.2 12.4 46 7.2 SE 28 43 15 23 1017.2 1016.2 0.0
21/10:00am 23.3 18.0 12.6 51 6.2 SSE 32 43 17 23 1017.4 1016.4 0.0
21/09:30am 22.3 17.6 12.0 52 5.9 SSE 28 43 15 23 1017.3 1016.3 0.0
21/09:00am 22.0 17.4 12.3 54 5.5 SE 28 35 15 19 1017.4 1016.4 0.0
21/08:30am 22.4 18.4 12.9 55 5.5 SSE 26 35 14 19 1017.4 1016.4 0.0
21/08:00am 19.6 14.6 12.1 62 4.2 SSE 30 37 16 20 1017.3 1016.3 0.0
21/07:30am 18.1 12.9 11.7 66 3.5 SE 30 41 16 22 1017.0 1016.0 0.0
21/07:00am 17.8 13.1 12.0 69 3.2 SE 28 41 15 22 1016.8 1015.8 0.0
21/06:30am 17.5 14.3 12.0 70 3.1 SE 20 28 11 15 1016.7 1015.7 0.0
21/06:00am 17.0 14.4 11.9 72 2.8 SSE 17 26 9 14 1016.3 1015.3 0.0
21/05:30am 16.6 13.0 11.7 73 2.7 SSE 22 35 12 19 1016.1 1015.1 0.0
21/05:00am 16.3 12.7 11.9 75 2.4 SSE 22 33 12 18 1015.9 1014.9 0.0
21/04:30am 15.9 13.1 11.5 75 2.4 SSE 17 24 9 13 1015.7 1014.7 0.0
21/04:00am 15.5 13.0 10.9 74 2.5 SE 15 22 8 12 1015.4 1014.4 0.0
21/03:30am 15.6 10.1 10.4 71 2.8 S 30 41 16 22 1014.9 1013.8 0.0
21/03:00am 16.1 11.6 10.2 68 3.1 SSE 24 32 13 17 1014.8 1013.7 0.0
21/02:30am 16.5 11.3 10.1 66 3.4 SSE 28 39 15 21 1014.9 1013.8 0.0
21/02:00am 16.6 12.1 10.2 66 3.4 SSE 24 37 13 20 1014.9 1013.8 0.0
21/01:30am 16.8 13.2 10.6 67 3.3 SSE 20 35 11 19 1014.9 1013.8 0.0
21/01:00am 17.0 12.7 10.6 66 3.4 SSE 24 33 13 18 1014.8 1013.7 0.0
21/12:30am 17.7 13.0 10.6 63 3.8 SSE 26 37 14 20 1014.9 1013.8 0.0
21/12:00am 18.6 12.7 11.2 62 4.1 SSE 33 48 18 26 1014.9 1013.8 0.0
 
Date/Time
WST
Temp
°C
App
Temp
°C
Dew
Point
Rel
Hum
%
Delta-T
°C
Wind Press
QNH
hPa
Press
MSL
hPa
Rain
since 9 am
mm
Dir
 
Spd
km/h
Gust
km/h
Spd
kts
Gust
kts
20/11:30pm 18.5 11.8 11.1 62 4.1 SSE 37 50 20 27 1014.9 1013.8 0.0
20/11:00pm 19.2 13.7 12.0 63 4.0 SSE 32 44 17 24 1014.9 1013.8 0.0
20/10:30pm 19.1 14.7 12.8 67 3.6 SE 28 41 15 22 1014.8 1013.7 0.0
20/10:00pm 19.4 14.9 12.7 65 3.8 SSE 28 44 15 24 1014.2 1013.2 0.0
20/09:30pm 20.0 15.1 12.5 62 4.3 SSE 30 35 16 19 1013.9 1012.9 0.0
20/09:00pm 20.3 15.8 12.5 61 4.4 SSE 28 39 15 21 1013.3 1012.3 0.0
20/08:32pm 20.9 16.5 12.8 60 4.6 SSE 28 46 15 25 1012.8 1011.8 0.0
20/08:30pm 20.9 16.9 13.1 61 4.5 SSE 26 37 14 20 1012.8 1011.8 0.0
20/08:00pm 21.3 17.3 13.0 59 4.8 SE 26 39 14 21 1012.4 1011.4 0.0
20/07:41pm 21.8 17.3 12.6 56 5.3 SSE 28 46 15 25 1012.1 1011.1 0.0
20/07:30pm 21.9 18.1 13.5 59 4.9 SSE 26 37 14 20 1012.0 1011.0 0.0
20/07:00pm 22.2 16.7 13.5 57 5.1 SSE 35 52 19 28 1011.6 1010.6 0.0
20/06:56pm 22.4 17.4 13.5 57 5.2 SSE 32 52 17 28 1011.5 1010.5 0.0
20/06:30pm 23.3 17.9 14.0 56 5.5 SSE 35 50 19 27 1011.2 1010.2 0.0
20/06:12pm 23.7 17.1 13.8 53 5.8 SSE 41 59 22 32 1010.7 1009.6 0.0
20/06:00pm 23.8 17.7 14.2 55 5.7 SSE 39 54 21 29 1010.4 1009.3 0.0
20/05:55pm 24.7 18.5 14.8 54 6.0 S 41 59 22 32 1010.2 1009.1 0.0
20/05:30pm 26.3 19.2 15.0 49 6.9 S 46 57 25 31 1009.0 1008.0 0.0
20/05:00pm 28.0 20.6 15.3 46 7.8 S 48 61 26 33 1008.1 1007.1 0.0
20/04:30pm 30.9 24.0 15.7 39 9.5 S 46 57 25 31 1006.9 1005.9 0.0
20/04:00pm 32.3 25.4 15.7 36 10.5 S 46 59 25 32 1006.2 1005.1 0.0
20/03:40pm 32.3 26.0 16.2 38 10.2 SSW 44 59 24 32 1005.7 1004.6 0.0
20/03:31pm 34.9 30.1 16.7 34 11.7 SW 37 59 20 32 1005.5 1004.4 0.0
20/03:30pm 36.0 31.8 17.2 33 12.2 SW 35 46 19 25 1005.5 1004.4 0.0
20/03:02pm 35.7 32.6 17.4 33 11.9 WSW 30 59 16 32 1005.2 1004.1 0.0
20/03:00pm 36.4 33.3 17.5 32 12.4 WSW 30 46 16 25 1005.4 1004.3 0.0
20/02:36pm 36.0 32.6 17.7 34 12.0 W 32 54 17 29 1005.4 1004.3 0.0
20/02:30pm 36.0 32.8 18.1 34 11.8 W 32 43 17 23 1005.4 1004.3 0.0
20/02:00pm 35.6 32.6 18.7 37 11.2 WSW 32 46 17 25 1005.7 1004.6 0.0
20/01:56pm 34.7 31.9 18.3 38 10.8 WSW 30 48 16 26 1005.7 1004.6 0.0
20/01:30pm 34.7 31.9 18.3 38 10.8 W 30 46 16 25 1005.8 1004.7 0.0
20/01:02pm 36.3 33.4 18.8 35 11.6 W 32 50 17 27 1005.7 1004.6 0.0
20/01:00pm 35.3 32.4 18.8 37 10.9 W 32 46 17 25 1005.7 1004.6 0.0
20/12:36pm 35.7 33.7 19.2 38 11.0 W 28 52 15 28 1005.9 1004.8 0.0
20/12:30pm 34.8 32.6 18.8 39 10.6 W 28 43 15 23 1006.0 1004.9 0.0
20/12:00pm 34.1 31.9 18.6 40 10.2 W 28 39 15 21 1006.3 1005.2 0.0
20/11:30am 32.9 31.5 18.7 43 9.3 WNW 24 33 13 18 1006.5 1005.4 0.0
20/11:00am 32.1 31.4 18.7 45 8.8 W 20 35 11 19 1006.9 1005.9 0.0
20/10:30am 31.0 30.2 18.4 47 8.2 W 20 32 11 17 1007.2 1006.2 0.0
20/10:00am 29.6 27.3 18.4 51 7.3 WNW 28 35 15 19 1007.4 1006.4 0.0
20/09:30am 28.6 26.6 18.4 54 6.6 NW 26 33 14 18 1007.7 1006.7 0.0
20/09:00am 27.7 25.6 18.1 56 6.2 NW 26 35 14 19 1008.0 1007.0 2.0
20/08:30am 27.4 23.9 16.4 51 6.9 NW 30 37 16 20 1007.9 1006.9 2.0
20/08:00am 27.6 25.1 17.2 53 6.6 NNW 26 35 14 19 1008.0 1007.0 2.0
20/07:30am 27.0 25.5 18.6 60 5.4 NNW 24 32 13 17 1008.1 1007.1 2.0
20/07:00am 25.8 26.1 19.7 69 4.0 NNW 17 30 9 16 1008.1 1007.1 2.0
20/06:30am 25.1 26.4 20.1 74 3.3 NE 13 17 7 9 1007.8 1006.8 2.0
20/06:00am 24.5 26.6 20.2 77 2.8 E 9 13 5 7 1007.8 1006.8 2.0
20/05:30am 23.1 25.3 19.7 81 2.2 E 7 11 4 6 1007.8 1006.8 2.0

Other Formats:

Comma delimited format used in spreadsheet applications
http://www.bom.gov.au/fwo/IDW60801/IDW60801.95625.axf

JavaScript Object Notation format (JSON) in row-major order
http://www.bom.gov.au/fwo/IDW60801/IDW60801.95625.json